createdAt,value
2018-09-19T00:00:22.309Z,7.80
2018-09-19T00:05:30.731Z,8.30
2018-09-19T00:10:39.175Z,7.87
2018-09-19T00:15:47.689Z,8.33
2018-09-19T00:20:56.049Z,8.50
2018-09-19T00:26:04.362Z,8.00
2018-09-19T00:31:12.798Z,8.10
2018-09-19T00:36:21.125Z,7.07
2018-09-19T00:41:29.470Z,7.77
2018-09-19T00:46:37.800Z,7.67
2018-09-19T00:51:46.123Z,7.80
2018-09-19T00:56:54.405Z,8.47
2018-09-19T01:02:02.812Z,7.60
2018-09-19T01:07:11.229Z,7.60
2018-09-19T01:12:19.637Z,6.97
2018-09-19T01:17:27.998Z,7.30
2018-09-19T01:22:36.488Z,7.30
2018-09-19T01:27:44.697Z,7.17
2018-09-19T01:32:52.964Z,7.60
2018-09-19T01:38:01.321Z,7.10
2018-09-19T01:43:09.733Z,7.50
2018-09-19T01:48:18.021Z,7.10
2018-09-19T01:53:26.473Z,7.10
2018-09-19T01:58:34.837Z,7.43
2018-09-19T02:03:43.138Z,7.47
2018-09-19T02:08:51.472Z,8.00
2018-09-19T02:13:59.790Z,6.93
2018-09-19T02:19:08.521Z,7.30
2018-09-19T02:24:16.815Z,7.13
2018-09-19T02:29:25.217Z,7.20
2018-09-19T02:34:33.543Z,7.17
2018-09-19T02:39:41.967Z,8.20
2018-09-19T02:44:50.292Z,7.60
2018-09-19T02:49:58.729Z,8.40
2018-09-19T02:55:07.085Z,8.60
2018-09-19T03:00:15.267Z,7.90
2018-09-19T03:05:23.699Z,7.10
2018-09-19T03:10:32.047Z,8.10
2018-09-19T03:15:40.502Z,8.00
2018-09-19T03:20:48.914Z,7.90
2018-09-19T03:25:57.202Z,8.73
2018-09-19T03:31:05.662Z,7.87
2018-09-19T03:36:14.014Z,7.80
2018-09-19T03:41:22.278Z,8.07
2018-09-19T03:46:30.476Z,7.73
2018-09-19T03:51:38.756Z,7.47
2018-09-19T03:56:47.183Z,7.70
2018-09-19T04:01:55.474Z,8.27
2018-09-19T04:07:03.841Z,7.63
2018-09-19T04:12:12.222Z,8.40
2018-09-19T04:17:20.618Z,8.50
2018-09-19T04:22:29.033Z,8.00
2018-09-19T04:27:37.342Z,7.73
2018-09-19T04:32:45.754Z,8.23
2018-09-19T04:37:54.118Z,8.40
2018-09-19T04:43:02.582Z,7.10
2018-09-19T04:48:11.021Z,8.20
2018-09-19T04:53:19.342Z,8.20
2018-09-19T04:58:27.805Z,8.30
2018-09-19T05:03:36.109Z,8.10
2018-09-19T05:08:44.397Z,7.50
2018-09-19T05:13:53.018Z,8.07
2018-09-19T05:19:01.434Z,8.27
2018-09-19T05:24:03.595Z,8.60
2018-09-19T05:29:11.870Z,8.03
2018-09-19T05:34:20.302Z,7.90
2018-09-19T05:39:28.704Z,8.70
2018-09-19T05:44:37.006Z,7.80
2018-09-19T05:49:45.525Z,7.00
2018-09-19T05:54:55.258Z,7.80
2018-09-19T06:00:04.098Z,7.00
2018-09-19T06:05:12.481Z,7.00
2018-09-19T06:10:20.779Z,6.77
2018-09-19T06:15:29.113Z,7.83
2018-09-19T06:20:37.342Z,7.70
2018-09-19T06:25:45.690Z,7.53
2018-09-19T06:30:54.043Z,6.90
2018-09-19T06:36:02.353Z,7.10
2018-09-19T06:41:10.749Z,6.97
2018-09-19T06:46:19.024Z,7.40
2018-09-19T06:51:27.402Z,6.73
2018-09-19T06:56:35.656Z,6.30
2018-09-19T07:01:44.018Z,7.00
2018-09-19T07:06:52.338Z,7.43
2018-09-19T07:12:00.632Z,6.70
2018-09-19T07:17:08.946Z,6.00
2018-09-19T07:22:17.366Z,5.93
2018-09-19T07:27:25.737Z,6.30
2018-09-19T07:32:34.049Z,5.90
2018-09-19T07:37:42.357Z,5.40
2018-09-19T07:42:50.766Z,5.70
2018-09-19T07:47:59.153Z,5.80
2018-09-19T07:53:07.521Z,5.93
2018-09-19T07:58:15.810Z,5.60
2018-09-19T08:03:24.145Z,6.00
2018-09-19T08:08:32.508Z,5.73
2018-09-19T08:13:40.830Z,5.27
2018-09-19T08:18:49.173Z,5.70
2018-09-19T08:23:57.606Z,5.97
2018-09-19T08:29:05.988Z,5.87
2018-09-19T08:34:14.211Z,5.47
2018-09-19T08:39:22.642Z,5.40
2018-09-19T08:44:30.948Z,5.30
2018-09-19T08:49:39.292Z,5.90
2018-09-19T08:54:47.551Z,5.10
2018-09-19T08:59:55.863Z,5.17
2018-09-19T09:05:04.174Z,5.23
2018-09-19T09:10:12.533Z,5.00
2018-09-19T09:15:20.835Z,5.17
2018-09-19T09:20:29.182Z,5.70
2018-09-19T09:25:37.606Z,5.33
2018-09-19T09:30:45.876Z,4.97
2018-09-19T09:35:54.206Z,4.83
2018-09-19T09:41:02.585Z,4.43
2018-09-19T09:46:10.919Z,4.43
2018-09-19T09:51:19.186Z,4.00
2018-09-19T09:56:27.506Z,4.80
2018-09-19T10:01:35.864Z,4.23
2018-09-19T10:06:44.114Z,5.00
2018-09-19T10:11:52.346Z,4.47
2018-09-19T10:17:00.677Z,4.30
2018-09-19T10:22:09.078Z,3.63
2018-09-19T10:27:17.434Z,4.60
2018-09-19T10:32:25.854Z,4.70
2018-09-19T10:37:34.178Z,4.23
2018-09-19T10:42:42.694Z,4.10
2018-09-19T10:47:51.072Z,3.83
2018-09-19T10:52:59.449Z,4.27
2018-09-19T10:58:07.827Z,4.90
2018-09-19T11:03:16.210Z,4.57
2018-09-19T11:08:24.510Z,4.77
2018-09-19T11:13:32.877Z,4.07
2018-09-19T11:18:41.206Z,4.60
2018-09-19T11:23:49.514Z,4.40
2018-09-19T11:28:57.877Z,4.20
2018-09-19T11:34:06.391Z,4.20
2018-09-19T11:39:14.601Z,4.00
2018-09-19T11:44:23.003Z,3.67
2018-09-19T11:49:31.325Z,4.17
2018-09-19T11:54:39.802Z,3.80
2018-09-19T11:59:48.153Z,4.33
2018-09-19T12:04:56.537Z,4.00
2018-09-19T12:10:04.923Z,4.57
2018-09-19T12:15:13.216Z,4.10
2018-09-19T12:20:21.570Z,4.00
2018-09-19T12:25:29.881Z,3.87
2018-09-19T12:30:38.246Z,3.87
2018-09-19T12:35:46.602Z,3.30
2018-09-19T12:40:55.038Z,3.57
2018-09-19T12:46:03.374Z,3.60
2018-09-19T12:51:11.583Z,3.30
2018-09-19T12:56:19.890Z,3.70
2018-09-19T13:01:28.208Z,3.83
2018-09-19T13:06:36.516Z,3.83
2018-09-19T13:11:44.873Z,3.97
2018-09-19T13:16:53.285Z,3.87
2018-09-19T13:22:01.649Z,4.23
2018-09-19T13:27:10.074Z,4.33
2018-09-19T13:32:18.289Z,3.70
2018-09-19T13:37:26.637Z,3.80
2018-09-19T13:42:34.982Z,3.80
2018-09-19T13:47:43.299Z,4.00
2018-09-19T13:52:51.588Z,3.97
2018-09-19T13:58:06.837Z,3.93
2018-09-19T14:03:15.070Z,3.60
2018-09-19T14:08:23.441Z,4.00
2018-09-19T14:13:31.816Z,3.93
2018-09-19T14:18:40.102Z,4.17
2018-09-19T14:23:48.565Z,3.53
2018-09-19T14:28:56.869Z,3.90
2018-09-19T14:34:05.261Z,4.00
2018-09-19T14:39:13.591Z,4.10
2018-09-19T14:44:21.969Z,4.10
2018-09-19T14:49:30.418Z,4.30
2018-09-19T14:54:38.786Z,3.90
2018-09-19T14:59:47.257Z,3.60
2018-09-19T15:04:55.438Z,5.30
2018-09-19T15:10:03.826Z,4.70
2018-09-19T15:15:12.291Z,3.80
2018-09-19T15:20:20.636Z,3.93
2018-09-19T15:25:28.977Z,3.50
2018-09-19T15:30:37.295Z,4.20
2018-09-19T15:35:45.590Z,4.00
2018-09-19T15:40:54.084Z,4.33
2018-09-19T15:46:02.362Z,4.17
2018-09-19T15:51:10.806Z,4.13
2018-09-19T15:56:19.233Z,4.20
2018-09-19T16:01:27.566Z,4.13
2018-09-19T16:06:35.951Z,3.87
2018-09-19T16:11:44.263Z,4.00
2018-09-19T16:16:52.645Z,4.03
2018-09-19T16:22:01.026Z,4.67
2018-09-19T16:27:09.347Z,4.23
2018-09-19T16:32:17.655Z,3.70
2018-09-19T16:37:26.081Z,4.30
2018-09-19T16:42:34.497Z,4.30
2018-09-19T16:47:42.899Z,4.50
2018-09-19T16:52:51.124Z,3.97
2018-09-19T16:57:59.469Z,4.73
2018-09-19T17:03:07.890Z,4.50
2018-09-19T17:08:16.186Z,4.50
2018-09-19T17:13:24.589Z,4.60
2018-09-19T17:18:32.935Z,4.50
2018-09-19T17:23:41.762Z,6.30
2018-09-19T17:28:50.105Z,4.40
2018-09-19T17:33:58.429Z,4.60
2018-09-19T17:39:08.466Z,4.60
2018-09-19T17:44:16.769Z,5.07
2018-09-19T17:49:25.059Z,5.50
2018-09-19T17:54:33.365Z,5.27
2018-09-19T17:59:41.788Z,5.13
2018-09-19T18:04:50.149Z,5.50
2018-09-19T18:09:58.425Z,5.20
2018-09-19T18:15:07.486Z,6.33
2018-09-19T18:20:15.973Z,5.63
2018-09-19T18:25:24.397Z,5.30
2018-09-19T18:30:32.790Z,5.13
2018-09-19T18:35:41.154Z,5.13
2018-09-19T18:40:49.369Z,4.87
2018-09-19T18:45:57.678Z,4.67
2018-09-19T18:51:06.042Z,4.60
2018-09-19T18:56:14.478Z,4.63
2018-09-19T19:01:22.841Z,4.67
2018-09-19T19:06:31.349Z,5.27
2018-09-19T19:11:39.658Z,5.07
2018-09-19T19:16:48.026Z,5.00
2018-09-19T19:21:56.354Z,5.00
2018-09-19T19:27:04.702Z,5.50
2018-09-19T19:32:12.928Z,5.50
2018-09-19T19:37:21.283Z,5.13
2018-09-19T19:42:29.715Z,5.60
2018-09-19T19:47:37.941Z,5.20
2018-09-19T19:52:46.273Z,5.53
2018-09-19T19:57:54.714Z,5.63
2018-09-19T20:03:03.029Z,5.80
2018-09-19T20:08:11.390Z,6.10
2018-09-19T20:13:19.811Z,6.37
2018-09-19T20:18:28.233Z,6.30
2018-09-19T20:23:36.493Z,5.40
2018-09-19T20:28:44.846Z,6.40
2018-09-19T20:33:53.189Z,6.00
2018-09-19T20:39:01.554Z,5.70
2018-09-19T20:44:09.858Z,5.90
2018-09-19T20:49:18.145Z,6.50
2018-09-19T20:54:26.409Z,5.90
2018-09-19T20:59:34.782Z,6.07
2018-09-19T21:04:43.169Z,6.00
2018-09-19T21:09:51.518Z,6.03
2018-09-19T21:14:59.975Z,5.73
2018-09-19T21:20:08.293Z,6.20
2018-09-19T21:25:16.715Z,6.10
2018-09-19T21:30:25.047Z,6.27
2018-09-19T21:35:33.798Z,5.87
2018-09-19T21:40:42.469Z,5.80
2018-09-19T21:45:50.717Z,5.90
2018-09-19T21:50:59.016Z,6.00
2018-09-19T21:56:07.481Z,5.80
2018-09-19T22:01:20.401Z,6.20
2018-09-19T22:06:28.736Z,5.93
2018-09-19T22:11:37.650Z,6.00
2018-09-19T22:16:45.913Z,5.80
2018-09-19T22:21:54.209Z,6.77
2018-09-19T22:27:02.577Z,6.20
2018-09-19T22:32:10.981Z,5.90
2018-09-19T22:37:19.326Z,6.20
2018-09-19T22:42:27.779Z,6.50
2018-09-19T22:47:36.045Z,6.77
2018-09-19T22:52:44.795Z,6.13
2018-09-19T22:57:53.018Z,6.60
2018-09-19T23:03:01.383Z,6.43
2018-09-19T23:08:09.742Z,6.13
2018-09-19T23:13:18.157Z,6.63
2018-09-19T23:18:26.435Z,6.40
2018-09-19T23:23:34.733Z,6.37
2018-09-19T23:28:43.109Z,6.87
2018-09-19T23:33:51.518Z,6.30
2018-09-19T23:38:59.895Z,6.10
2018-09-19T23:44:08.218Z,6.60
2018-09-19T23:49:16.555Z,6.63
2018-09-19T23:54:24.881Z,6.77
2018-09-19T23:59:33.243Z,6.37
